Time;durP1;ratioP1;P1;durP2;ratioP2;P2;SDS_P1;SDS_P2;PMS_P1;PMS_P2;Temp;Humidity;BMP_temperature;BMP_pressure;BME280_temperature;BME280_humidity;BME280_pressure;Samples;Min_cycle;Max_cycle;Signal;HPM_P1;HPM_P2
2021/11/19 00:01:30;;;;;;;;;;;10.00;99.90;;;;;;5073402;28;20034;-77
2021/11/19 00:03:57;;;;;;;;;;;10.00;99.90;;;;;;5075850;28;20298;-77
2021/11/19 00:06:25;;;;;;;;;;;10.00;99.90;;;;;;5066804;28;19924;-78
2021/11/19 00:08:52;;;;;;;;;;;10.00;99.90;;;;;;5074761;28;19925;-77
2021/11/19 00:11:20;;;;;;;;;;;10.00;99.90;;;;;;5070796;28;19939;-76
2021/11/19 00:13:47;;;;;;;;;;;10.00;99.90;;;;;;5072652;28;19924;-77
2021/11/19 00:16:15;;;;;;;;;;;10.00;99.90;;;;;;5065260;28;19932;-77
2021/11/19 00:18:41;;;;;;;;;;;10.00;99.90;;;;;;5069016;28;19924;-78
2021/11/19 00:21:08;;;;;;;;;;;10.00;99.90;;;;;;5074494;28;20302;-77
2021/11/19 00:23:39;;;;;;;;;;;10.00;99.90;;;;;;5068358;28;20378;-77
2021/11/19 00:26:06;;;;;;;;;;;10.00;99.90;;;;;;5064600;28;19924;-77
2021/11/19 00:28:32;;;;;;;;;;;10.00;99.90;;;;;;5071828;28;19928;-77
2021/11/19 00:31:00;;;;;;;;;;;10.00;99.90;;;;;;5069148;28;19928;-77
2021/11/19 00:33:28;;;;;;;;;;;10.00;99.90;;;;;;5066936;28;19924;-77
2021/11/19 00:35:55;;;;;;;;;;;10.00;99.90;;;;;;5072258;28;19947;-77
2021/11/19 00:38:21;;;;;;;;;;;10.00;99.90;;;;;;5069524;28;19924;-77
2021/11/19 00:40:51;;;;;;;;;;;10.00;99.90;;;;;;5072924;28;19925;-78
2021/11/19 00:43:18;;;;;;;;;;;10.00;99.90;;;;;;5070266;28;19924;-78
2021/11/19 00:45:45;;;;;;;;;;;10.00;99.90;;;;;;5074656;28;19931;-77
2021/11/19 00:48:11;;;;;;;;;;;10.00;99.90;;;;;;5064303;28;19932;-77
2021/11/19 00:50:40;;;;;;;;;;;10.00;99.90;;;;;;5070932;28;19924;-78
2021/11/19 00:53:06;;;;;;;;;;;10.00;99.90;;;;;;5068565;28;19931;-78
2021/11/19 00:55:33;;;;;;;;;;;10.00;99.90;;;;;;5071484;28;19930;-78
2021/11/19 00:58:01;;;;;;;;;;;10.00;99.90;;;;;;5069214;28;20023;-77
2021/11/19 01:00:29;;;;;;;;;;;10.00;99.90;;;;;;5071048;28;19964;-78
2021/11/19 01:02:56;;;;;;;;;;;10.00;99.90;;;;;;5067766;28;19924;-79
2021/11/19 01:05:23;;;;;;;;;;;10.00;99.90;;;;;;5075161;28;19930;-78
2021/11/19 01:07:49;;;;;;;;;;;10.00;99.90;;;;;;5074661;28;19928;-78
2021/11/19 01:10:18;;;;;;;;;;;10.00;99.90;;;;;;5070246;28;19924;-77
2021/11/19 01:12:45;;;;;;;;;;;10.00;99.90;;;;;;5068848;28;19931;-77
2021/11/19 01:15:16;;;;;;;;;;;10.00;99.90;;;;;;5072540;28;20011;-77
2021/11/19 01:17:44;;;;;;;;;;;10.00;99.90;;;;;;5072015;28;20007;-76
2021/11/19 01:20:13;;;;;;;;;;;10.00;99.90;;;;;;5070763;28;19924;-76
2021/11/19 01:22:41;;;;;;;;;;;10.00;99.90;;;;;;5070973;28;20353;-77
2021/11/19 01:25:10;;;;;;;;;;;10.00;99.90;;;;;;5072080;28;19931;-76
2021/11/19 01:27:37;;;;;;;;;;;10.00;99.90;;;;;;5072364;28;19928;-77
2021/11/19 01:30:04;;;;;;;;;;;10.00;99.90;;;;;;5069647;28;19943;-76
2021/11/19 01:32:32;;;;;;;;;;;10.00;99.90;;;;;;5070715;28;19928;-77
2021/11/19 01:34:59;;;;;;;;;;;10.00;99.90;;;;;;5071442;28;19932;-76
2021/11/19 01:37:27;;;;;;;;;;;10.10;99.90;;;;;;5072292;28;19980;-76
2021/11/19 01:39:53;;;;;;;;;;;10.10;99.90;;;;;;5070660;28;19947;-76
2021/11/19 01:42:22;;;;;;;;;;;10.00;99.90;;;;;;5067547;28;19935;-76
2021/11/19 01:44:56;;;;;;;;;;;10.10;99.90;;;;;;5071415;28;20345;-77
2021/11/19 01:47:23;;;;;;;;;;;10.10;99.90;;;;;;5069787;28;20293;-76
2021/11/19 01:49:51;;;;;;;;;;;10.10;99.90;;;;;;5072229;28;19929;-78
2021/11/19 01:52:19;;;;;;;;;;;10.10;99.90;;;;;;5069217;28;19951;-77
2021/11/19 01:54:47;;;;;;;;;;;10.10;99.90;;;;;;5073616;28;20375;-76
2021/11/19 01:57:15;;;;;;;;;;;10.10;99.90;;;;;;5069342;28;20379;-76
2021/11/19 01:59:44;;;;;;;;;;;10.10;99.90;;;;;;5068964;28;20019;-76
2021/11/19 02:02:16;;;;;;;;;;;10.10;99.90;;;;;;5064010;28;20525;-76
2021/11/19 02:04:44;;;;;;;;;;;10.10;99.90;;;;;;5070322;28;19930;-76
2021/11/19 02:07:14;;;;;;;;;;;10.10;99.90;;;;;;5068060;28;19931;-76
2021/11/19 02:09:43;;;;;;;;;;;10.10;99.90;;;;;;5064627;28;19938;-75
2021/11/19 02:12:18;;;;;;;;;;;10.10;99.90;;;;;;5061301;28;20022;-76
2021/11/19 02:14:49;;;;;;;;;;;10.10;99.90;;;;;;5070445;28;19924;-76
2021/11/19 02:17:16;;;;;;;;;;;10.10;99.90;;;;;;5068493;28;19925;-76
2021/11/19 02:19:45;;;;;;;;;;;10.10;99.90;;;;;;5068797;28;20297;-75
2021/11/19 02:22:15;;;;;;;;;;;10.10;99.90;;;;;;5065486;28;19925;-75
2021/11/19 02:24:44;;;;;;;;;;;10.10;99.90;;;;;;5068207;28;19924;-75
2021/11/19 02:27:13;;;;;;;;;;;10.10;99.90;;;;;;5070154;28;20385;-76
2021/11/19 02:29:42;;;;;;;;;;;10.10;99.90;;;;;;5068776;28;19931;-75
2021/11/19 02:32:10;;;;;;;;;;;10.10;99.90;;;;;;5071457;28;20007;-76
2021/11/19 02:34:37;;;;;;;;;;;10.10;99.90;;;;;;5071689;28;20018;-76
2021/11/19 02:37:06;;;;;;;;;;;10.10;99.90;;;;;;5073622;28;19932;-77
2021/11/19 02:39:40;;;;;;;;;;;10.10;99.90;;;;;;5072729;28;19925;-76
2021/11/19 02:42:09;;;;;;;;;;;10.10;99.90;;;;;;5073728;28;19924;-76
2021/11/19 02:44:36;;;;;;;;;;;10.10;99.90;;;;;;5065961;28;19924;-77
2021/11/19 02:47:05;;;;;;;;;;;10.10;99.90;;;;;;5076336;28;19930;-77
2021/11/19 02:49:32;;;;;;;;;;;10.10;99.90;;;;;;5084639;28;20399;-76
2021/11/19 02:51:59;;;;;;;;;;;10.10;99.90;;;;;;5072765;28;19928;-76
2021/11/19 02:54:27;;;;;;;;;;;10.10;99.90;;;;;;5074862;28;20403;-76
2021/11/19 02:56:55;;;;;;;;;;;10.10;99.90;;;;;;5072415;28;19932;-76
2021/11/19 02:59:23;;;;;;;;;;;10.10;99.90;;;;;;5074964;28;20007;-76
2021/11/19 03:01:52;;;;;;;;;;;10.10;99.90;;;;;;5071507;28;19931;-76
2021/11/19 03:04:20;;;;;;;;;;;10.10;99.90;;;;;;5073940;28;20373;-76
2021/11/19 03:06:48;;;;;;;;;;;10.10;99.90;;;;;;5068763;28;20307;-75
2021/11/19 03:09:17;;;;;;;;;;;10.10;99.90;;;;;;5074024;28;20015;-77
2021/11/19 03:11:44;;;;;;;;;;;10.10;99.90;;;;;;5068554;28;19925;-77
2021/11/19 03:14:13;;;;;;;;;;;10.10;99.90;;;;;;5075099;28;19968;-77
2021/11/19 03:16:40;;;;;;;;;;;10.10;99.90;;;;;;5069211;28;19925;-77
2021/11/19 03:19:07;;;;;;;;;;;10.10;99.90;;;;;;5074147;28;19939;-79
2021/11/19 03:21:35;;;;;;;;;;;10.20;99.90;;;;;;5073280;28;19925;-77
2021/11/19 03:24:02;;;;;;;;;;;10.20;99.90;;;;;;5074210;28;20386;-76
2021/11/19 03:26:29;;;;;;;;;;;10.20;99.90;;;;;;5073860;28;20015;-76
2021/11/19 03:28:56;;;;;;;;;;;10.20;99.90;;;;;;5069473;28;20413;-77
2021/11/19 03:31:24;;;;;;;;;;;10.20;99.90;;;;;;5071309;28;19924;-77
2021/11/19 03:33:52;;;;;;;;;;;10.20;99.90;;;;;;5074013;28;20018;-76
2021/11/19 03:36:19;;;;;;;;;;;10.20;99.90;;;;;;5071647;28;19943;-77
2021/11/19 03:38:49;;;;;;;;;;;10.20;99.90;;;;;;5069792;28;19959;-77
2021/11/19 03:41:17;;;;;;;;;;;10.30;99.90;;;;;;5073626;28;19924;-76
2021/11/19 03:43:44;;;;;;;;;;;10.30;99.90;;;;;;5075528;28;19924;-77
2021/11/19 03:46:13;;;;;;;;;;;10.30;99.90;;;;;;5073436;28;19928;-76
2021/11/19 03:48:42;;;;;;;;;;;10.30;99.90;;;;;;5074234;28;19988;-78
2021/11/19 03:51:10;;;;;;;;;;;10.30;99.90;;;;;;5074922;28;20313;-77
2021/11/19 03:53:37;;;;;;;;;;;10.30;99.90;;;;;;5074052;28;20019;-76
2021/11/19 03:56:04;;;;;;;;;;;10.30;99.90;;;;;;5074873;28;19925;-76
2021/11/19 03:58:32;;;;;;;;;;;10.30;99.90;;;;;;5069281;28;19925;-76
2021/11/19 04:00:59;;;;;;;;;;;10.30;99.90;;;;;;5069192;28;20003;-76
2021/11/19 04:03:26;;;;;;;;;;;10.30;99.90;;;;;;5066506;28;20460;-76
2021/11/19 04:05:54;;;;;;;;;;;10.40;99.90;;;;;;5073881;28;20268;-77
2021/11/19 04:08:21;;;;;;;;;;;10.30;99.90;;;;;;5070307;28;19932;-78
2021/11/19 04:10:50;;;;;;;;;;;10.40;99.90;;;;;;5072420;28;20015;-76
2021/11/19 04:13:17;;;;;;;;;;;10.40;99.90;;;;;;5072101;28;19924;-76
2021/11/19 04:15:45;;;;;;;;;;;10.40;99.90;;;;;;5071783;28;19924;-77
2021/11/19 04:18:12;;;;;;;;;;;10.40;99.90;;;;;;5072049;28;19931;-77
2021/11/19 04:20:40;;;;;;;;;;;10.40;99.90;;;;;;5071223;28;19932;-77
2021/11/19 04:23:08;;;;;;;;;;;10.40;99.90;;;;;;5070011;28;19928;-77
2021/11/19 04:25:35;;;;;;;;;;;10.40;99.90;;;;;;5071546;28;20395;-77
2021/11/19 04:28:02;;;;;;;;;;;10.40;99.90;;;;;;5067786;28;19933;-77
2021/11/19 04:30:30;;;;;;;;;;;10.40;99.90;;;;;;5071424;28;20387;-77
2021/11/19 04:32:56;;;;;;;;;;;10.40;99.90;;;;;;5067444;28;19930;-78
2021/11/19 04:35:24;;;;;;;;;;;10.50;99.90;;;;;;5074056;28;19924;-78
2021/11/19 04:37:50;;;;;;;;;;;10.50;99.90;;;;;;5069276;28;19928;-77
2021/11/19 04:40:19;;;;;;;;;;;10.50;99.90;;;;;;5069093;28;19924;-77
2021/11/19 04:42:46;;;;;;;;;;;10.50;99.90;;;;;;5071287;28;20434;-77
2021/11/19 04:45:14;;;;;;;;;;;10.50;99.90;;;;;;5071323;28;20015;-77
2021/11/19 04:47:41;;;;;;;;;;;10.50;99.90;;;;;;5070481;28;19925;-76
2021/11/19 04:50:10;;;;;;;;;;;10.50;99.90;;;;;;5069682;28;19931;-78
2021/11/19 04:52:37;;;;;;;;;;;10.50;99.90;;;;;;5066819;28;19924;-77
2021/11/19 04:55:04;;;;;;;;;;;10.40;99.90;;;;;;5071353;28;19924;-78
2021/11/19 04:57:32;;;;;;;;;;;10.50;99.90;;;;;;5070348;28;19929;-78
2021/11/19 04:59:58;;;;;;;;;;;10.50;99.90;;;;;;5067977;28;19932;-77
2021/11/19 05:02:27;;;;;;;;;;;10.50;99.90;;;;;;5069488;28;19924;-77
2021/11/19 05:04:54;;;;;;;;;;;10.50;99.90;;;;;;5070111;28;19924;-77
2021/11/19 05:07:21;;;;;;;;;;;10.50;99.90;;;;;;5069108;28;19960;-78
2021/11/19 05:09:47;;;;;;;;;;;10.50;99.90;;;;;;5073151;28;19935;-77
2021/11/19 05:12:18;;;;;;;;;;;10.50;99.90;;;;;;5073514;28;19929;-77
2021/11/19 05:14:47;;;;;;;;;;;10.40;99.90;;;;;;5075689;28;19930;-76
2021/11/19 05:17:14;;;;;;;;;;;10.40;99.90;;;;;;5065103;28;19973;-76
2021/11/19 05:19:41;;;;;;;;;;;10.50;99.90;;;;;;5069256;28;20413;-76
2021/11/19 05:22:08;;;;;;;;;;;10.50;99.90;;;;;;5069212;28;20447;-76
2021/11/19 05:24:34;;;;;;;;;;;10.50;99.90;;;;;;5068103;28;19975;-75
2021/11/19 05:27:01;;;;;;;;;;;10.50;99.90;;;;;;5068256;28;20037;-75
2021/11/19 05:29:28;;;;;;;;;;;10.50;99.90;;;;;;5069313;28;20010;-75
2021/11/19 05:31:56;;;;;;;;;;;10.50;99.90;;;;;;5067800;28;20011;-76
2021/11/19 05:34:22;;;;;;;;;;;10.50;99.90;;;;;;5069007;28;19932;-76
2021/11/19 05:36:49;;;;;;;;;;;10.50;99.90;;;;;;5068601;28;19925;-76
2021/11/19 05:39:16;;;;;;;;;;;10.50;99.90;;;;;;5070493;28;19924;-77
2021/11/19 05:41:43;;;;;;;;;;;10.50;99.90;;;;;;5070321;28;19978;-76
2021/11/19 05:44:10;;;;;;;;;;;10.50;99.90;;;;;;5073103;28;19931;-77
2021/11/19 05:46:40;;;;;;;;;;;10.50;99.90;;;;;;5068171;28;20004;-77
2021/11/19 05:49:09;;;;;;;;;;;10.50;99.90;;;;;;5068602;28;19932;-77
2021/11/19 05:51:36;;;;;;;;;;;10.50;99.90;;;;;;5070300;28;20024;-76
2021/11/19 05:54:03;;;;;;;;;;;10.50;99.90;;;;;;5071167;28;19928;-76
2021/11/19 05:56:30;;;;;;;;;;;10.50;99.90;;;;;;5069809;28;19943;-76
2021/11/19 05:58:56;;;;;;;;;;;10.50;99.90;;;;;;5070076;28;19998;-76
2021/11/19 06:01:24;;;;;;;;;;;10.50;99.90;;;;;;5069121;28;19931;-77
2021/11/19 06:03:51;;;;;;;;;;;10.50;99.90;;;;;;5070768;28;20329;-76
2021/11/19 06:06:20;;;;;;;;;;;10.50;99.90;;;;;;5068285;28;20008;-77
2021/11/19 06:08:47;;;;;;;;;;;10.40;99.90;;;;;;5069937;28;20671;-77
2021/11/19 06:11:17;;;;;;;;;;;10.40;99.90;;;;;;5070157;28;19935;-78
2021/11/19 06:13:45;;;;;;;;;;;10.40;99.90;;;;;;5069758;28;20017;-77
2021/11/19 06:16:14;;;;;;;;;;;10.40;99.90;;;;;;5070020;28;19925;-78
2021/11/19 06:18:42;;;;;;;;;;;10.40;99.90;;;;;;5069837;28;20282;-76
2021/11/19 06:21:11;;;;;;;;;;;10.40;99.90;;;;;;5070186;28;19925;-77
2021/11/19 06:23:41;;;;;;;;;;;10.40;99.90;;;;;;5068927;28;19924;-77
2021/11/19 06:26:08;;;;;;;;;;;10.40;99.90;;;;;;5063371;28;19931;-76
2021/11/19 06:28:37;;;;;;;;;;;10.40;99.90;;;;;;5070467;28;19929;-76
2021/11/19 06:31:04;;;;;;;;;;;10.40;99.90;;;;;;5068457;28;19940;-75
2021/11/19 06:33:31;;;;;;;;;;;10.40;99.90;;;;;;5069267;28;20236;-76
2021/11/19 06:35:57;;;;;;;;;;;10.40;99.90;;;;;;5070269;28;20272;-76
2021/11/19 06:38:24;;;;;;;;;;;10.40;99.90;;;;;;5069816;28;20397;-75
2021/11/19 06:40:52;;;;;;;;;;;10.40;99.90;;;;;;5068053;28;19932;-77
2021/11/19 06:43:19;;;;;;;;;;;10.40;99.90;;;;;;5065478;28;20298;-76
2021/11/19 06:45:46;;;;;;;;;;;10.40;99.90;;;;;;5070527;28;20003;-76
2021/11/19 06:48:12;;;;;;;;;;;10.40;99.90;;;;;;5066054;28;22316;-76
2021/11/19 06:50:42;;;;;;;;;;;10.40;99.90;;;;;;5068543;28;19967;-77
2021/11/19 06:53:09;;;;;;;;;;;10.40;99.90;;;;;;5065756;28;19930;-76
2021/11/19 06:55:36;;;;;;;;;;;10.40;99.90;;;;;;5066870;28;19931;-77
2021/11/19 06:58:06;;;;;;;;;;;10.40;99.90;;;;;;5064637;28;19928;-76
2021/11/19 07:00:37;;;;;;;;;;;10.40;99.90;;;;;;5069678;28;19924;-77
2021/11/19 07:03:03;;;;;;;;;;;10.40;99.90;;;;;;5068560;28;19932;-76
2021/11/19 07:05:31;;;;;;;;;;;10.40;99.90;;;;;;5062328;28;20387;-77
2021/11/19 07:07:57;;;;;;;;;;;10.40;99.90;;;;;;5063566;28;20070;-76
2021/11/19 07:10:25;;;;;;;;;;;10.40;99.90;;;;;;5062859;28;19925;-77
2021/11/19 07:12:52;;;;;;;;;;;10.40;99.90;;;;;;5067549;28;19930;-74
2021/11/19 07:15:20;;;;;;;;;;;10.40;99.90;;;;;;5068169;28;20027;-76
2021/11/19 07:17:47;;;;;;;;;;;10.40;99.90;;;;;;5067880;28;19928;-74
2021/11/19 07:20:15;;;;;;;;;;;10.40;99.90;;;;;;5070073;28;19924;-77
2021/11/19 07:22:42;;;;;;;;;;;10.40;99.90;;;;;;5064451;28;19925;-77
2021/11/19 07:25:10;;;;;;;;;;;10.50;99.90;;;;;;5066460;28;19924;-75
2021/11/19 07:27:37;;;;;;;;;;;10.50;99.90;;;;;;5070481;28;20290;-76
2021/11/19 07:30:04;;;;;;;;;;;10.60;99.90;;;;;;5063085;28;19925;-76
2021/11/19 07:32:32;;;;;;;;;;;10.60;99.90;;;;;;5067794;28;20037;-78
2021/11/19 07:34:59;;;;;;;;;;;10.60;99.90;;;;;;5064661;28;19939;-76
2021/11/19 07:37:26;;;;;;;;;;;10.60;99.90;;;;;;5067579;28;19929;-77
2021/11/19 07:39:53;;;;;;;;;;;10.60;99.90;;;;;;5069606;28;20367;-75
2021/11/19 07:42:20;;;;;;;;;;;10.60;99.90;;;;;;5070800;28;19932;-75
2021/11/19 07:44:46;;;;;;;;;;;10.60;99.90;;;;;;5068895;28;19999;-74
2021/11/19 07:47:13;;;;;;;;;;;10.60;99.90;;;;;;5065278;28;19935;-79
2021/11/19 07:49:41;;;;;;;;;;;10.60;99.90;;;;;;5062609;28;19924;-76
2021/11/19 07:52:08;;;;;;;;;;;10.60;99.90;;;;;;5066994;28;19931;-75
2021/11/19 07:54:35;;;;;;;;;;;10.70;99.90;;;;;;5058844;28;20004;-75
2021/11/19 07:57:01;;;;;;;;;;;10.70;99.90;;;;;;5068319;28;19980;-77
2021/11/19 07:59:29;;;;;;;;;;;10.70;99.90;;;;;;5067660;28;19931;-73
2021/11/19 08:01:59;;;;;;;;;;;10.70;99.90;;;;;;5066919;28;20023;-79
2021/11/19 08:04:26;;;;;;;;;;;10.70;99.90;;;;;;5066362;28;19924;-81
2021/11/19 08:06:54;;;;;;;;;;;10.80;99.90;;;;;;5062601;28;19928;-78
2021/11/19 08:09:21;;;;;;;;;;;10.80;99.90;;;;;;5072801;28;19964;-75
2021/11/19 08:11:48;;;;;;;;;;;10.80;99.90;;;;;;5066072;28;19931;-80
2021/11/19 08:14:15;;;;;;;;;;;10.80;99.90;;;;;;5059258;28;19925;-84
2021/11/19 08:16:44;;;;;;;;;;;10.80;99.90;;;;;;5063417;28;19924;-81
2021/11/19 08:19:15;;;;;;;;;;;10.90;99.90;;;;;;5068066;28;19931;-76
2021/11/19 08:21:41;;;;;;;;;;;10.90;99.90;;;;;;5068218;28;19924;-76
2021/11/19 08:24:09;;;;;;;;;;;10.90;99.90;;;;;;5062649;28;19963;-75
2021/11/19 08:26:38;;;;;;;;;;;10.90;99.90;;;;;;5062173;28;20023;-75
2021/11/19 08:29:05;;;;;;;;;;;10.90;99.90;;;;;;5070255;28;19941;-77
2021/11/19 08:31:32;;;;;;;;;;;10.90;99.90;;;;;;5068560;28;19931;-74
2021/11/19 08:33:58;;;;;;;;;;;10.90;99.90;;;;;;5067930;28;19924;-78
2021/11/19 08:36:26;;;;;;;;;;;11.00;99.90;;;;;;5076275;28;19992;-79
2021/11/19 08:38:53;;;;;;;;;;;10.90;99.90;;;;;;5072545;28;19932;-75
2021/11/19 08:41:22;;;;;;;;;;;11.00;99.90;;;;;;5074274;28;20011;-76
2021/11/19 08:43:50;;;;;;;;;;;11.00;99.90;;;;;;5071117;28;19931;-75
2021/11/19 08:46:18;;;;;;;;;;;11.00;99.90;;;;;;5064969;28;19925;-75
2021/11/19 08:48:46;;;;;;;;;;;11.10;99.90;;;;;;5060606;28;20369;-75
2021/11/19 08:51:18;;;;;;;;;;;11.10;99.90;;;;;;5069051;28;20387;-75
2021/11/19 08:53:45;;;;;;;;;;;11.10;99.90;;;;;;5065384;28;20285;-76
2021/11/19 08:56:12;;;;;;;;;;;11.20;99.90;;;;;;5071163;28;19925;-81
2021/11/19 08:58:41;;;;;;;;;;;11.20;99.90;;;;;;5065490;28;20020;-77
2021/11/19 09:01:08;;;;;;;;;;;11.30;99.90;;;;;;5073723;28;19970;-77
2021/11/19 09:03:36;;;;;;;;;;;11.30;99.90;;;;;;5067853;28;20385;-78
2021/11/19 09:06:03;;;;;;;;;;;11.40;99.90;;;;;;5061361;28;19924;-79
2021/11/19 09:08:30;;;;;;;;;;;11.40;99.90;;;;;;5069458;28;19924;-80
2021/11/19 09:10:58;;;;;;;;;;;11.40;99.90;;;;;;5071778;28;20351;-83
2021/11/19 09:13:25;;;;;;;;;;;11.40;99.90;;;;;;5076313;28;20329;-78
2021/11/19 09:15:53;;;;;;;;;;;11.50;99.90;;;;;;5077526;28;20364;-82
2021/11/19 09:18:24;;;;;;;;;;;11.40;99.90;;;;;;5064667;28;19924;-81
2021/11/19 09:21:07;;;;;;;;;;;11.40;99.90;;;;;;5063342;28;19932;-76
2021/11/19 09:23:35;;;;;;;;;;;11.40;99.90;;;;;;5068812;28;19929;-78
2021/11/19 09:26:05;;;;;;;;;;;11.40;99.90;;;;;;5063506;28;19933;-76
2021/11/19 09:28:35;;;;;;;;;;;11.40;99.90;;;;;;5063124;28;19933;-78
2021/11/19 09:31:05;;;;;;;;;;;11.50;99.90;;;;;;5063908;28;20015;-78
2021/11/19 09:33:32;;;;;;;;;;;11.50;99.90;;;;;;5070641;28;19929;-78
2021/11/19 09:35:59;;;;;;;;;;;11.50;99.90;;;;;;5069994;28;19925;-78
2021/11/19 09:38:27;;;;;;;;;;;11.60;99.90;;;;;;5064226;28;20345;-78
2021/11/19 09:40:57;;;;;;;;;;;11.70;99.90;;;;;;5063188;28;19928;-77
2021/11/19 09:43:29;;;;;;;;;;;11.70;99.90;;;;;;5068130;28;20011;-76
2021/11/19 09:46:23;;;;;;;;;;;11.70;99.90;;;;;;5067625;28;19932;-78
2021/11/19 09:48:59;;;;;;;;;;;11.80;99.90;;;;;;5065998;28;19968;-77
2021/11/19 09:51:46;;;;;;;;;;;11.90;99.90;;;;;;5067538;28;19943;-80
2021/11/19 09:54:31;;;;;;;;;;;12.00;99.90;;;;;;5063016;28;20007;-78
2021/11/19 09:57:16;;;;;;;;;;;12.10;99.90;;;;;;5063391;28;19934;-78
2021/11/19 09:59:45;;;;;;;;;;;12.10;99.90;;;;;;5070847;28;19924;-80
2021/11/19 10:02:24;;;;;;;;;;;12.10;99.90;;;;;;5064679;28;20398;-80
2021/11/19 10:04:57;;;;;;;;;;;12.10;99.90;;;;;;5072669;28;20015;-82
2021/11/19 10:07:28;;;;;;;;;;;12.10;99.90;;;;;;5064633;28;20174;-78
2021/11/19 10:10:14;;;;;;;;;;;12.10;99.90;;;;;;5068850;28;19932;-77
2021/11/19 10:12:45;;;;;;;;;;;12.00;99.90;;;;;;5066968;28;19931;-78
2021/11/19 10:15:15;;;;;;;;;;;12.00;99.90;;;;;;5066383;28;19977;-86
2021/11/19 10:17:48;;;;;;;;;;;12.10;99.90;;;;;;5062742;28;19972;-80
2021/11/19 10:20:17;;;;;;;;;;;12.10;99.90;;;;;;5062948;28;19925;-78
2021/11/19 10:22:46;;;;;;;;;;;12.10;99.90;;;;;;5066292;28;19929;-83
2021/11/19 10:25:15;;;;;;;;;;;12.10;99.90;;;;;;5066526;28;19925;-87
2021/11/19 10:27:43;;;;;;;;;;;12.10;99.90;;;;;;5063674;28;20447;-82
2021/11/19 10:30:13;;;;;;;;;;;12.10;99.90;;;;;;5053401;28;19931;-88
2021/11/19 10:32:40;;;;;;;;;;;12.10;99.90;;;;;;5068387;28;19948;-86
2021/11/19 10:35:12;;;;;;;;;;;12.10;99.90;;;;;;5068518;28;19964;-81
2021/11/19 10:37:57;;;;;;;;;;;12.10;99.90;;;;;;5065542;28;20352;-75
2021/11/19 10:40:50;;;;;;;;;;;12.10;99.90;;;;;;5056542;28;19932;-77
2021/11/19 10:43:31;;;;;;;;;;;12.10;99.90;;;;;;5024991;28;20306;-75
2021/11/19 10:46:27;;;;;;;;;;;12.10;99.90;;;;;;5058659;28;19983;-77
2021/11/19 10:49:15;;;;;;;;;;;12.10;99.90;;;;;;4984689;28;19944;-76
2021/11/19 10:51:58;;;;;;;;;;;12.20;99.90;;;;;;5049928;28;19924;-77
2021/11/19 10:54:44;;;;;;;;;;;12.20;99.90;;;;;;5064396;28;20008;-76
2021/11/19 10:57:16;;;;;;;;;;;12.30;99.90;;;;;;5071392;28;19931;-77
2021/11/19 10:59:44;;;;;;;;;;;12.30;99.90;;;;;;5072471;28;19932;-79
2021/11/19 11:02:33;;;;;;;;;;;12.40;99.90;;;;;;5065627;28;19966;-80
2021/11/19 11:05:01;;;;;;;;;;;12.50;99.90;;;;;;5069440;28;19933;-77
2021/11/19 11:07:31;;;;;;;;;;;12.70;99.90;;;;;;5064156;28;19924;-76
2021/11/19 11:10:01;;;;;;;;;;;12.80;99.90;;;;;;5067284;28;19925;-78
2021/11/19 11:12:30;;;;;;;;;;;12.90;99.90;;;;;;5069236;28;19924;-76
2021/11/19 11:15:15;;;;;;;;;;;12.90;99.90;;;;;;5071450;28;19924;-77
2021/11/19 11:17:51;;;;;;;;;;;13.00;99.90;;;;;;5054378;28;20014;-76
2021/11/19 11:20:22;;;;;;;;;;;13.10;99.90;;;;;;5063330;28;20294;-78
2021/11/19 11:22:52;;;;;;;;;;;13.20;99.90;;;;;;5069588;28;19925;-77
2021/11/19 11:25:24;;;;;;;;;;;13.20;99.90;;;;;;5068440;28;19932;-77
2021/11/19 11:27:59;;;;;;;;;;;13.20;99.90;;;;;;5071412;28;19924;-76
2021/11/19 11:30:27;;;;;;;;;;;13.30;99.90;;;;;;5064833;28;19930;-75
2021/11/19 11:33:12;;;;;;;;;;;13.40;99.90;;;;;;5068822;28;19924;-77
2021/11/19 11:35:42;;;;;;;;;;;13.50;99.90;;;;;;5068480;28;20015;-79
2021/11/19 11:38:15;;;;;;;;;;;13.40;99.90;;;;;;5068412;28;19924;-77
2021/11/19 11:40:49;;;;;;;;;;;13.30;99.90;;;;;;5072090;28;20002;-76
2021/11/19 11:43:20;;;;;;;;;;;13.30;99.90;;;;;;5062897;28;20007;-76
2021/11/19 11:45:49;;;;;;;;;;;13.40;99.90;;;;;;5072073;28;20012;-78
2021/11/19 11:48:26;;;;;;;;;;;13.40;99.90;;;;;;5069429;28;20019;-78
2021/11/19 11:50:56;;;;;;;;;;;13.30;99.90;;;;;;5066703;28;20023;-78
2021/11/19 11:53:24;;;;;;;;;;;13.30;99.90;;;;;;5067614;28;20470;-77
2021/11/19 11:56:08;;;;;;;;;;;13.40;99.90;;;;;;5071432;28;20013;-77
2021/11/19 11:58:42;;;;;;;;;;;13.40;99.90;;;;;;5068198;28;20452;-77
2021/11/19 12:01:12;;;;;;;;;;;13.50;99.90;;;;;;5067629;28;19924;-77
2021/11/19 12:03:45;;;;;;;;;;;13.50;99.90;;;;;;5067794;28;20011;-84
2021/11/19 12:06:15;;;;;;;;;;;13.40;99.90;;;;;;5060643;28;19925;-76
2021/11/19 12:08:49;;;;;;;;;;;13.50;99.90;;;;;;5062195;28;19925;-79
2021/11/19 12:11:24;;;;;;;;;;;13.60;99.90;;;;;;5069276;28;19978;-80
2021/11/19 12:13:52;;;;;;;;;;;13.60;99.90;;;;;;5069479;28;19950;-77
2021/11/19 12:16:25;;;;;;;;;;;13.60;99.90;;;;;;5070176;28;19931;-78
2021/11/19 12:18:53;;;;;;;;;;;13.60;99.90;;;;;;5060044;28;19924;-78
2021/11/19 12:21:25;;;;;;;;;;;13.60;99.90;;;;;;5071614;28;20013;-77
2021/11/19 12:23:57;;;;;;;;;;;13.60;99.90;;;;;;5067549;28;19925;-77
2021/11/19 12:26:40;;;;;;;;;;;13.60;99.90;;;;;;5064879;28;19924;-80
2021/11/19 12:29:11;;;;;;;;;;;13.60;99.90;;;;;;5069183;28;20000;-79
2021/11/19 12:31:40;;;;;;;;;;;13.50;99.90;;;;;;5075013;28;20471;-86
2021/11/19 12:34:13;;;;;;;;;;;13.40;99.90;;;;;;5066310;28;19924;-79
2021/11/19 12:36:44;;;;;;;;;;;13.40;99.90;;;;;;5065627;28;19933;-80
2021/11/19 12:39:12;;;;;;;;;;;13.40;99.90;;;;;;5059897;28;19925;-87
2021/11/19 12:41:41;;;;;;;;;;;13.30;99.90;;;;;;5070517;28;19930;-88
2021/11/19 12:44:19;;;;;;;;;;;13.30;99.90;;;;;;5068214;28;19932;-82
2021/11/19 12:47:01;;;;;;;;;;;13.20;99.90;;;;;;5061833;28;19928;-82
2021/11/19 12:49:42;;;;;;;;;;;13.10;99.90;;;;;;5068933;28;19925;-81
2021/11/19 12:52:13;;;;;;;;;;;13.00;99.90;;;;;;5063105;28;20383;-79
2021/11/19 12:54:45;;;;;;;;;;;13.00;99.90;;;;;;5069708;28;19924;-83
2021/11/19 12:57:39;;;;;;;;;;;13.00;99.90;;;;;;5070099;28;19932;-84
2021/11/19 13:00:14;;;;;;;;;;;13.00;99.90;;;;;;5067567;28;20354;-79
2021/11/19 13:02:43;;;;;;;;;;;13.00;99.90;;;;;;5061963;28;19999;-80
2021/11/19 13:05:13;;;;;;;;;;;13.00;99.90;;;;;;5063815;28;19924;-85
2021/11/19 13:07:53;;;;;;;;;;;13.00;99.90;;;;;;5061140;28;19932;-79
2021/11/19 13:10:42;;;;;;;;;;;13.10;99.90;;;;;;5067789;28;20446;-78
2021/11/19 13:13:29;;;;;;;;;;;13.10;99.90;;;;;;5063129;28;20426;-84
2021/11/19 13:16:11;;;;;;;;;;;13.10;99.90;;;;;;5068771;28;19931;-83
2021/11/19 13:18:42;;;;;;;;;;;13.20;99.90;;;;;;5046636;28;19924;-81
2021/11/19 13:21:28;;;;;;;;;;;13.10;99.90;;;;;;5063542;28;19924;-83
2021/11/19 13:23:56;;;;;;;;;;;13.10;99.90;;;;;;5066869;28;19925;-81
2021/11/19 13:26:44;;;;;;;;;;;13.10;99.90;;;;;;5069886;28;19925;-80
2021/11/19 13:29:13;;;;;;;;;;;13.00;99.90;;;;;;5060000;28;20346;-80
2021/11/19 13:31:41;;;;;;;;;;;13.10;99.90;;;;;;5064489;28;19999;-80
2021/11/19 13:34:28;;;;;;;;;;;13.10;99.90;;;;;;5065739;28;20341;-79
2021/11/19 13:37:13;;;;;;;;;;;13.10;99.90;;;;;;5058725;28;20008;-81
2021/11/19 13:39:41;;;;;;;;;;;13.10;99.90;;;;;;5067204;28;19947;-82
2021/11/19 13:42:32;;;;;;;;;;;13.10;99.90;;;;;;5062757;28;19924;-85
2021/11/19 13:45:04;;;;;;;;;;;13.10;99.90;;;;;;5065210;28;20062;-83
2021/11/19 13:47:48;;;;;;;;;;;13.10;99.90;;;;;;5064100;28;19932;-80
2021/11/19 13:50:17;;;;;;;;;;;13.10;99.90;;;;;;5026361;28;20074;-82
2021/11/19 13:52:45;;;;;;;;;;;13.10;99.90;;;;;;5064730;28;19930;-85
2021/11/19 13:55:17;;;;;;;;;;;13.10;99.90;;;;;;5066275;28;19930;-80
2021/11/19 13:57:52;;;;;;;;;;;13.10;99.90;;;;;;5062468;28;19925;-78
2021/11/19 14:00:22;;;;;;;;;;;13.10;99.90;;;;;;5068171;28;20337;-80
2021/11/19 14:02:51;;;;;;;;;;;13.00;99.90;;;;;;5066595;28;19924;-82
2021/11/19 14:05:19;;;;;;;;;;;13.00;99.90;;;;;;5062722;28;19931;-76
2021/11/19 14:07:51;;;;;;;;;;;13.00;99.90;;;;;;5043329;28;19924;-78
2021/11/19 14:10:20;;;;;;;;;;;12.90;99.90;;;;;;5059912;28;19937;-78
2021/11/19 14:12:52;;;;;;;;;;;12.90;99.90;;;;;;5068306;28;20324;-76
2021/11/19 14:15:25;;;;;;;;;;;13.00;99.90;;;;;;5067633;28;20821;-77
2021/11/19 14:17:57;;;;;;;;;;;12.90;99.90;;;;;;5065123;28;19980;-80
2021/11/19 14:23:13;;;;;;;;;;;12.90;99.90;;;;;;5066127;28;19943;-74
2021/11/19 14:25:41;;;;;;;;;;;12.90;99.90;;;;;;5069765;28;19925;-78
2021/11/19 14:28:14;;;;;;;;;;;12.80;99.90;;;;;;5065071;28;19952;-78
2021/11/19 14:30:44;;;;;;;;;;;12.80;99.90;;;;;;5064583;28;19924;-82
2021/11/19 14:33:13;;;;;;;;;;;12.80;99.90;;;;;;5066998;28;19985;-77
2021/11/19 14:35:48;;;;;;;;;;;12.80;99.90;;;;;;5069678;28;19924;-80